Time;durP1;ratioP1;P1;durP2;ratioP2;P2;SDS_P1;SDS_P2;PMS_P1;PMS_P2;Temp;Humidity;BMP_temperature;BMP_pressure;BME280_temperature;BME280_humidity;BME280_pressure;Samples;Min_cycle;Max_cycle;Signal;HPM_P1;HPM_P2
2024/02/20 00:04:23;;;;;;;13.7;6.5;;;;;;;6.7;87.56;;;;;
2024/02/20 00:15:23;;;;;;;13.7;6.5;;;;;;;6.75;86.81;;;;;
2024/02/20 00:25:23;;;;;;;13.7;6.5;;;;;;;6.76;86.47;;;;;
2024/02/20 00:35:23;;;;;;;6.8;3.5;;;;;;;6.66;86.08;;;;;
2024/02/20 00:46:23;;;;;;;6.8;3.5;;;;;;;6.51;85.91;;;;;
2024/02/20 00:57:23;;;;;;;6.8;3.5;;;;;;;6.5;85.06;;;;;
2024/02/20 01:07:24;;;;;;;4.4;2.8;;;;;;;6.29;85.45;;;;;
2024/02/20 01:18:23;;;;;;;4.4;2.8;;;;;;;6.36;84.99;;;;;
2024/02/20 01:28:23;;;;;;;4.4;2.8;;;;;;;6.36;84.81;;;;;
2024/02/20 01:38:23;;;;;;;7.3;3.2;;;;;;;6.44;84.4;;;;;
2024/02/20 01:49:23;;;;;;;7.3;3.2;;;;;;;6.33;84.86;;;;;
2024/02/20 02:00:23;;;;;;;7.3;3.2;;;;;;;6.36;84.79;;;;;
2024/02/20 02:11:23;;;;;;;3.7;2.1;;;;;;;6.45;84.47;;;;;
2024/02/20 02:22:23;;;;;;;3.7;2.1;;;;;;;6.48;84.31;;;;;
2024/02/20 02:32:23;;;;;;;3.7;2.1;;;;;;;6.45;84.62;;;;;
2024/02/20 02:42:23;;;;;;;3.5;1.8;;;;;;;6.54;84.75;;;;;
2024/02/20 02:52:23;;;;;;;3.5;1.8;;;;;;;6.52;85.2;;;;;
2024/02/20 03:03:23;;;;;;;3.5;1.8;;;;;;;6.47;85.39;;;;;
2024/02/20 03:13:23;;;;;;;3.2;1.6;;;;;;;6.53;85.33;;;;;
2024/02/20 03:23:23;;;;;;;3.2;1.6;;;;;;;6.52;85.34;;;;;
2024/02/20 03:33:23;;;;;;;3.2;1.6;;;;;;;6.61;85.06;;;;;
2024/02/20 03:44:23;;;;;;;6.5;2.4;;;;;;;6.64;85.05;;;;;
2024/02/20 03:55:23;;;;;;;6.5;2.4;;;;;;;6.65;85.04;;;;;
2024/02/20 04:05:23;;;;;;;5;2;;;;;;;6.59;85.17;;;;;
2024/02/20 04:15:23;;;;;;;5;2;;;;;;;6.59;85.15;;;;;
2024/02/20 04:25:23;;;;;;;5;2;;;;;;;6.5;85;;;;;
2024/02/20 04:36:24;;;;;;;3.6;1.5;;;;;;;6.46;84.95;;;;;
2024/02/20 04:47:24;;;;;;;3.6;1.5;;;;;;;6.45;85.85;;;;;
2024/02/20 04:58:23;;;;;;;3.6;1.5;;;;;;;6.41;85.89;;;;;
2024/02/20 05:09:23;;;;;;;8.2;3.3;;;;;;;6.41;85.99;;;;;
2024/02/20 05:20:23;;;;;;;8.2;3.3;;;;;;;6.56;85.97;;;;;
2024/02/20 05:31:23;;;;;;;8.2;3.3;;;;;;;6.56;86.71;;;;;
2024/02/20 05:41:23;;;;;;;4.7;2.5;;;;;;;6.5;86.94;;;;;
2024/02/20 05:51:23;;;;;;;4.7;2.5;;;;;;;6.47;86.83;;;;;
2024/02/20 06:01:23;;;;;;;4.7;2.5;;;;;;;6.57;86.38;;;;;
2024/02/20 06:11:26;;;;;;;4.1;2.1;;;;;;;6.64;86.05;;;;;
2024/02/20 06:21:23;;;;;;;4.1;2.1;;;;;;;6.75;85.78;;;;;
2024/02/20 06:32:23;;;;;;;4.1;2.1;;;;;;;6.96;85.06;;;;;
2024/02/20 06:42:23;;;;;;;4.5;2.6;;;;;;;7.11;84.47;;;;;
2024/02/20 06:53:23;;;;;;;4.5;2.6;;;;;;;7.27;83.71;;;;;
2024/02/20 07:03:23;;;;;;;4.6;2.6;;;;;;;7.26;83.19;;;;;
2024/02/20 07:13:23;;;;;;;4.6;2.6;;;;;;;7.55;82.98;;;;;
2024/02/20 07:23:23;;;;;;;4.6;2.6;;;;;;;7.93;81.18;;;;;
2024/02/20 07:33:23;;;;;;;5.2;2.7;;;;;;;8.39;80.67;;;;;
2024/02/20 07:43:23;;;;;;;5.2;2.7;;;;;;;8.71;78.92;;;;;
2024/02/20 07:54:24;;;;;;;5.2;2.7;;;;;;;8.57;78.36;;;;;
2024/02/20 08:04:23;;;;;;;5.2;2.9;;;;;;;8.51;78.71;;;;;
2024/02/20 08:14:25;;;;;;;5.2;2.9;;;;;;;8.32;81.18;;;;;
2024/02/20 08:25:23;;;;;;;5.2;2.9;;;;;;;8.39;81.12;;;;;
2024/02/20 08:36:23;;;;;;;5.7;3.5;;;;;;;8.53;81.17;;;;;
2024/02/20 08:47:23;;;;;;;5.7;3.5;;;;;;;8.54;80.7;;;;;
2024/02/20 08:58:23;;;;;;;5.7;3.5;;;;;;;8.3;81.47;;;;;
2024/02/20 09:09:23;;;;;;;6.5;4.5;;;;;;;8.2;82.91;;;;;
2024/02/20 09:19:23;;;;;;;6.5;4.5;;;;;;;8.24;83.53;;;;;
2024/02/20 09:30:23;;;;;;;6.5;4.5;;;;;;;8.39;83.83;;;;;
2024/02/20 09:40:23;;;;;;;6.5;3.4;;;;;;;8.71;84.07;;;;;
2024/02/20 09:50:23;;;;;;;6.5;3.4;;;;;;;8.91;83.39;;;;;
2024/02/20 10:01:23;;;;;;;6.5;3.4;;;;;;;9.13;83.89;;;;;
2024/02/20 10:11:23;;;;;;;4.3;2.5;;;;;;;9.26;82.3;;;;;
2024/02/20 10:21:23;;;;;;;4.3;2.5;;;;;;;9.29;82.24;;;;;
2024/02/20 10:32:23;;;;;;;4.3;2.5;;;;;;;9.04;82.89;;;;;
2024/02/20 10:42:23;;;;;;;5.6;3.2;;;;;;;8.87;83.58;;;;;
2024/02/20 10:53:23;;;;;;;5.6;3.2;;;;;;;8.71;83.57;;;;;
2024/02/20 11:04:23;;;;;;;7.5;3.8;;;;;;;8.66;82.36;;;;;
2024/02/20 11:15:23;;;;;;;7.5;3.8;;;;;;;8.61;82.28;;;;;
2024/02/20 11:25:25;;;;;;;7.5;3.8;;;;;;;8.49;82.74;;;;;
2024/02/20 11:36:23;;;;;;;10;5.5;;;;;;;8.83;82.52;;;;;
2024/02/20 11:47:23;;;;;;;10;5.5;;;;;;;8.96;81.87;;;;;
2024/02/20 11:58:23;;;;;;;10;5.5;;;;;;;8.96;80.55;;;;;
2024/02/20 12:08:23;;;;;;;7.2;4.7;;;;;;;9.36;79.66;;;;;
2024/02/20 12:18:24;;;;;;;7.2;4.7;;;;;;;9.69;79.3;;;;;
2024/02/20 12:29:23;;;;;;;7.2;4.7;;;;;;;10.16;78.16;;;;;
2024/02/20 12:40:25;;;;;;;9.1;5.4;;;;;;;10.51;75.74;;;;;
2024/02/20 12:51:23;;;;;;;9.1;5.4;;;;;;;10.44;75.31;;;;;
2024/02/20 13:01:23;;;;;;;9.1;5.4;;;;;;;9.92;75.24;;;;;
2024/02/20 13:12:26;;;;;;;8.8;5.8;;;;;;;9.82;76.76;;;;;
2024/02/20 13:22:23;;;;;;;8.8;5.8;;;;;;;9.53;77.59;;;;;
2024/02/20 13:32:23;;;;;;;8.8;5.8;;;;;;;9.2;79.99;;;;;
2024/02/20 13:43:23;;;;;;;6;3.8;;;;;;;9.37;80.02;;;;;
2024/02/20 13:53:23;;;;;;;6;3.8;;;;;;;9.33;81;;;;;
2024/02/20 14:03:24;;;;;;;7.3;3.9;;;;;;;9.31;80.99;;;;;
2024/02/20 14:13:24;;;;;;;7.3;3.9;;;;;;;9.53;81.03;;;;;
2024/02/20 14:24:23;;;;;;;7.3;3.9;;;;;;;9.61;80.26;;;;;
2024/02/20 14:34:23;;;;;;;8.5;5;;;;;;;9.19;80.27;;;;;
2024/02/20 14:45:23;;;;;;;8.5;5;;;;;;;8.32;80.04;;;;;
2024/02/20 14:56:23;;;;;;;8.5;5;;;;;;;7.76;84.05;;;;;
2024/02/20 15:07:23;;;;;;;3;2.1;;;;;;;7.32;87.25;;;;;
2024/02/20 15:17:23;;;;;;;3;2.1;;;;;;;7.1;88.19;;;;;
2024/02/20 15:27:26;;;;;;;3;2.1;;;;;;;7.05;88.82;;;;;
2024/02/20 15:38:23;;;;;;;5.3;2.2;;;;;;;7.15;88.5;;;;;
2024/02/20 15:49:24;;;;;;;5.3;2.2;;;;;;;7.16;88.51;;;;;
2024/02/20 16:00:23;;;;;;;5.3;2.2;;;;;;;6.99;89.61;;;;;
2024/02/20 16:11:23;;;;;;;9.2;4.9;;;;;;;7.14;89.67;;;;;
2024/02/20 16:21:23;;;;;;;9.2;4.9;;;;;;;7.17;89.62;;;;;
2024/02/20 16:32:23;;;;;;;9.2;4.9;;;;;;;7.11;89.23;;;;;
2024/02/20 16:43:23;;;;;;;11.7;7.1;;;;;;;7.08;89.59;;;;;
2024/02/20 16:54:23;;;;;;;11.7;7.1;;;;;;;7.01;89.28;;;;;
2024/02/20 17:05:26;;;;;;;11.3;6.7;;;;;;;7.01;89.68;;;;;
2024/02/20 17:15:23;;;;;;;11.3;6.7;;;;;;;7.07;89.77;;;;;
2024/02/20 17:25:25;;;;;;;11.3;6.7;;;;;;;7.18;89.61;;;;;
2024/02/20 17:36:23;;;;;;;12.1;7.5;;;;;;;7.18;89.3;;;;;
2024/02/20 17:46:23;;;;;;;12.1;7.5;;;;;;;7.16;89.01;;;;;
2024/02/20 17:57:24;;;;;;;12.1;7.5;;;;;;;7.18;88.73;;;;;
2024/02/20 18:07:23;;;;;;;13.7;7.8;;;;;;;7.2;88.62;;;;;
2024/02/20 18:18:23;;;;;;;13.7;7.8;;;;;;;7;88.1;;;;;
2024/02/20 18:28:23;;;;;;;13.7;7.8;;;;;;;6.88;88.46;;;;;
2024/02/20 18:39:25;;;;;;;16;9.1;;;;;;;6.88;88.15;;;;;
2024/02/20 18:49:23;;;;;;;16;9.1;;;;;;;6.88;88.01;;;;;
2024/02/20 18:59:23;;;;;;;16;9.1;;;;;;;6.96;87.9;;;;;
2024/02/20 19:10:23;;;;;;;19.1;10.4;;;;;;;6.93;87.57;;;;;
2024/02/20 19:21:24;;;;;;;19.1;10.4;;;;;;;7;87.18;;;;;
2024/02/20 19:32:24;;;;;;;17;9.5;;;;;;;6.93;86.96;;;;;
2024/02/20 19:42:24;;;;;;;17;9.5;;;;;;;6.88;86.35;;;;;
2024/02/20 19:53:23;;;;;;;17;9.5;;;;;;;6.93;86.81;;;;;
2024/02/20 20:04:24;;;;;;;16.9;8.6;;;;;;;6.84;86.31;;;;;
2024/02/20 20:15:24;;;;;;;16.9;8.6;;;;;;;6.65;86.63;;;;;
2024/02/20 20:26:23;;;;;;;16.9;8.6;;;;;;;6.54;86.57;;;;;
2024/02/20 20:36:24;;;;;;;10;5.7;;;;;;;6.54;86.43;;;;;
2024/02/20 20:46:24;;;;;;;10;5.7;;;;;;;6.43;86.64;;;;;
2024/02/20 20:56:24;;;;;;;10;5.7;;;;;;;6.48;86.66;;;;;
2024/02/20 21:07:24;;;;;;;11;6.1;;;;;;;6.51;86.76;;;;;
2024/02/20 21:17:24;;;;;;;11;6.1;;;;;;;6.33;85.56;;;;;
2024/02/20 21:28:24;;;;;;;11;6.1;;;;;;;6.25;84.63;;;;;
2024/02/20 21:38:24;;;;;;;7.8;3.8;;;;;;;6.14;84.63;;;;;
2024/02/20 21:48:24;;;;;;;7.8;3.8;;;;;;;6.04;84.56;;;;;
2024/02/20 21:59:24;;;;;;;7.8;3.8;;;;;;;5.97;84.7;;;;;
2024/02/20 22:10:24;;;;;;;7.5;3.8;;;;;;;5.93;85.2;;;;;
2024/02/20 22:21:24;;;;;;;7.5;3.8;;;;;;;5.89;85.65;;;;;
2024/02/20 22:31:24;;;;;;;7.5;3.8;;;;;;;5.81;86.49;;;;;
2024/02/20 22:41:26;;;;;;;9.1;4.5;;;;;;;5.82;86.87;;;;;
2024/02/20 22:52:24;;;;;;;9.1;4.5;;;;;;;5.79;87.19;;;;;
2024/02/20 23:03:24;;;;;;;10.2;6.3;;;;;;;5.69;87.73;;;;;
2024/02/20 23:13:24;;;;;;;10.2;6.3;;;;;;;5.74;88.06;;;;;
2024/02/20 23:24:24;;;;;;;10.2;6.3;;;;;;;5.61;88.64;;;;;
2024/02/20 23:34:24;;;;;;;8.4;4.7;;;;;;;5.57;88.67;;;;;
2024/02/20 23:44:24;;;;;;;8.4;4.7;;;;;;;5.51;88.66;;;;;
2024/02/20 23:55:24;;;;;;;8.4;4.7;;;;;;;5.35;88.68;;;;;
